Terminal Aerodrome Forecast
Issued by NWS Louisville, KY

Home | Current Version | Previous Version | Text Only | Print | Product List | Glossary On
Versions: 1 2 3 4 5 6 7 8 9 10 11 12 13 14 15 16 17 18 19 20 21 22 23 24 25 26 27 28 29 30 31 32 33 34 35 36
531
FTUS43 KLMK 100031 AAA
TAFLEX
TAF AMD
KLEX 100031Z 1001/1024 22013G20KT P6SM VCSH BKN018
      TEMPO 1001/1004 3SM SHRA
     FM100400 27013G20KT P6SM VCSH OVC012
     FM101100 29012KT 6SM -RASN OVC019
     FM101400 28009KT P6SM BKN025
     FM102000 27007KT P6SM OVC130=

USA.gov is the U.S. government's official web portal to all federal, state and local government web resources and services.